sensor_id;sensor_type;location;lat;lon;timestamp;P1;durP1;ratioP1;P2;durP2;ratioP2
15883;SDS011;8040;50.254;10.960;2023-11-22T00:31:44;420.30;;;120.57;;
15883;SDS011;8040;50.254;10.960;2023-11-22T00:34:09;414.50;;;116.18;;
15883;SDS011;8040;50.254;10.960;2023-11-22T00:36:35;415.98;;;109.85;;
15883;SDS011;8040;50.254;10.960;2023-11-22T00:39:01;418.80;;;110.95;;
15883;SDS011;8040;50.254;10.960;2023-11-22T00:41:31;415.58;;;121.65;;
15883;SDS011;8040;50.254;10.960;2023-11-22T00:43:58;399.65;;;104.10;;
15883;SDS011;8040;50.254;10.960;2023-11-22T00:46:23;397.60;;;104.35;;
15883;SDS011;8040;50.254;10.960;2023-11-22T00:48:48;408.13;;;104.63;;
15883;SDS011;8040;50.254;10.960;2023-11-22T05:30:55;402.87;;;98.50;;
15883;SDS011;8040;50.254;10.960;2023-11-22T05:33:21;399.70;;;98.90;;
15883;SDS011;8040;50.254;10.960;2023-11-22T05:35:46;423.27;;;103.07;;
15883;SDS011;8040;50.254;10.960;2023-11-22T05:38:12;413.50;;;101.73;;
15883;SDS011;8040;50.254;10.960;2023-11-22T05:40:37;398.13;;;98.53;;
15883;SDS011;8040;50.254;10.960;2023-11-22T05:43:03;420.25;;;103.25;;
15883;SDS011;8040;50.254;10.960;2023-11-22T05:45:29;416.93;;;101.83;;
15883;SDS011;8040;50.254;10.960;2023-11-22T05:47:55;417.73;;;101.60;;
15883;SDS011;8040;50.254;10.960;2023-11-22T05:50:20;428.33;;;104.30;;
15883;SDS011;8040;50.254;10.960;2023-11-22T05:52:46;427.30;;;102.23;;
15883;SDS011;8040;50.254;10.960;2023-11-22T05:55:11;427.40;;;103.30;;
15883;SDS011;8040;50.254;10.960;2023-11-22T05:57:39;421.02;;;102.35;;
15883;SDS011;8040;50.254;10.960;2023-11-22T06:00:08;434.05;;;105.38;;
15883;SDS011;8040;50.254;10.960;2023-11-22T06:02:34;433.02;;;106.00;;
15883;SDS011;8040;50.254;10.960;2023-11-22T06:05:01;417.67;;;101.53;;
15883;SDS011;8040;50.254;10.960;2023-11-22T06:07:27;436.23;;;106.87;;
15883;SDS011;8040;50.254;10.960;2023-11-22T06:09:52;436.10;;;105.90;;
15883;SDS011;8040;50.254;10.960;2023-11-22T06:12:18;448.30;;;109.32;;
15883;SDS011;8040;50.254;10.960;2023-11-22T06:14:45;423.65;;;104.72;;
15883;SDS011;8040;50.254;10.960;2023-11-22T06:17:11;429.33;;;105.20;;
15883;SDS011;8040;50.254;10.960;2023-11-22T06:19:37;425.60;;;103.70;;
15883;SDS011;8040;50.254;10.960;2023-11-22T06:22:02;451.70;;;110.68;;
15883;SDS011;8040;50.254;10.960;2023-11-22T06:24:28;435.67;;;106.80;;
15883;SDS011;8040;50.254;10.960;2023-11-22T06:26:53;436.15;;;107.22;;
15883;SDS011;8040;50.254;10.960;2023-11-22T06:29:19;461.33;;;112.15;;
15883;SDS011;8040;50.254;10.960;2023-11-22T06:31:45;461.73;;;114.20;;
15883;SDS011;8040;50.254;10.960;2023-11-22T06:34:11;459.57;;;112.63;;
15883;SDS011;8040;50.254;10.960;2023-11-22T06:36:37;455.38;;;110.88;;
15883;SDS011;8040;50.254;10.960;2023-11-22T06:39:03;447.73;;;109.43;;
15883;SDS011;8040;50.254;10.960;2023-11-22T06:41:30;435.05;;;106.07;;
15883;SDS011;8040;50.254;10.960;2023-11-22T06:43:55;405.37;;;102.07;;
15883;SDS011;8040;50.254;10.960;2023-11-22T06:46:21;413.43;;;102.57;;
15883;SDS011;8040;50.254;10.960;2023-11-22T06:48:48;413.60;;;99.22;;
15883;SDS011;8040;50.254;10.960;2023-11-22T06:51:14;411.45;;;99.00;;
15883;SDS011;8040;50.254;10.960;2023-11-22T06:53:41;421.10;;;105.97;;
15883;SDS011;8040;50.254;10.960;2023-11-22T06:56:07;415.13;;;99.22;;
15883;SDS011;8040;50.254;10.960;2023-11-22T06:58:32;422.92;;;102.18;;
15883;SDS011;8040;50.254;10.960;2023-11-22T07:00:58;420.08;;;102.95;;
15883;SDS011;8040;50.254;10.960;2023-11-22T07:03:23;427.50;;;101.83;;
15883;SDS011;8040;50.254;10.960;2023-11-22T07:05:49;406.67;;;97.30;;
15883;SDS011;8040;50.254;10.960;2023-11-22T07:08:14;425.73;;;102.07;;
15883;SDS011;8040;50.254;10.960;2023-11-22T07:10:42;411.05;;;99.50;;
15883;SDS011;8040;50.254;10.960;2023-11-22T07:13:10;449.95;;;107.20;;
15883;SDS011;8040;50.254;10.960;2023-11-22T07:15:37;441.92;;;106.15;;
15883;SDS011;8040;50.254;10.960;2023-11-22T07:18:02;429.27;;;102.28;;
15883;SDS011;8040;50.254;10.960;2023-11-22T07:20:28;420.27;;;97.90;;
15883;SDS011;8040;50.254;10.960;2023-11-22T07:22:53;422.58;;;100.90;;
15883;SDS011;8040;50.254;10.960;2023-11-22T07:25:22;409.35;;;97.43;;
15883;SDS011;8040;50.254;10.960;2023-11-22T07:27:50;423.10;;;100.25;;
15883;SDS011;8040;50.254;10.960;2023-11-22T07:30:16;407.77;;;96.90;;
15883;SDS011;8040;50.254;10.960;2023-11-22T07:32:45;427.83;;;101.80;;
15883;SDS011;8040;50.254;10.960;2023-11-22T07:35:11;417.10;;;100.17;;
15883;SDS011;8040;50.254;10.960;2023-11-22T07:37:40;450.73;;;106.97;;
15883;SDS011;8040;50.254;10.960;2023-11-22T07:40:09;454.70;;;106.50;;
15883;SDS011;8040;50.254;10.960;2023-11-22T07:42:35;445.52;;;104.60;;
15883;SDS011;8040;50.254;10.960;2023-11-22T07:45:01;419.23;;;101.38;;
15883;SDS011;8040;50.254;10.960;2023-11-22T07:47:27;407.83;;;98.07;;
15883;SDS011;8040;50.254;10.960;2023-11-22T07:49:53;407.25;;;105.75;;
15883;SDS011;8040;50.254;10.960;2023-11-22T07:52:23;405.05;;;96.25;;
15883;SDS011;8040;50.254;10.960;2023-11-22T07:54:55;403.08;;;95.88;;
15883;SDS011;8040;50.254;10.960;2023-11-22T07:57:21;414.33;;;98.60;;
15883;SDS011;8040;50.254;10.960;2023-11-22T07:59:53;407.08;;;95.15;;
15883;SDS011;8040;50.254;10.960;2023-11-22T08:02:20;406.63;;;102.50;;
15883;SDS011;8040;50.254;10.960;2023-11-22T08:04:46;394.50;;;95.13;;
15883;SDS011;8040;50.254;10.960;2023-11-22T08:07:13;429.00;;;103.88;;
15883;SDS011;8040;50.254;10.960;2023-11-22T08:09:39;402.52;;;93.43;;
15883;SDS011;8040;50.254;10.960;2023-11-22T08:12:06;418.65;;;99.97;;
15883;SDS011;8040;50.254;10.960;2023-11-22T08:14:32;408.38;;;96.90;;
15883;SDS011;8040;50.254;10.960;2023-11-22T08:16:58;428.38;;;101.88;;
15883;SDS011;8040;50.254;10.960;2023-11-22T08:19:23;419.37;;;99.80;;
15883;SDS011;8040;50.254;10.960;2023-11-22T08:21:49;440.93;;;104.67;;
15883;SDS011;8040;50.254;10.960;2023-11-22T08:24:15;430.35;;;100.85;;
15883;SDS011;8040;50.254;10.960;2023-11-22T08:26:40;474.75;;;112.65;;
15883;SDS011;8040;50.254;10.960;2023-11-22T08:29:06;492.40;;;118.33;;
15883;SDS011;8040;50.254;10.960;2023-11-22T08:31:36;475.45;;;113.53;;
15883;SDS011;8040;50.254;10.960;2023-11-22T08:34:02;472.77;;;111.20;;
15883;SDS011;8040;50.254;10.960;2023-11-22T08:36:32;454.65;;;107.13;;
15883;SDS011;8040;50.254;10.960;2023-11-22T08:39:01;427.88;;;106.20;;
15883;SDS011;8040;50.254;10.960;2023-11-22T08:41:29;440.00;;;102.30;;
15883;SDS011;8040;50.254;10.960;2023-11-22T08:43:55;447.87;;;107.00;;
15883;SDS011;8040;50.254;10.960;2023-11-22T08:46:22;451.77;;;108.37;;
15883;SDS011;8040;50.254;10.960;2023-11-22T08:48:48;425.65;;;101.65;;
15883;SDS011;8040;50.254;10.960;2023-11-22T08:51:14;454.40;;;108.53;;
15883;SDS011;8040;50.254;10.960;2023-11-22T08:53:40;447.30;;;107.17;;
15883;SDS011;8040;50.254;10.960;2023-11-22T08:56:05;445.37;;;107.10;;
15883;SDS011;8040;50.254;10.960;2023-11-22T08:58:34;457.70;;;108.78;;
15883;SDS011;8040;50.254;10.960;2023-11-22T09:00:59;488.17;;;118.53;;
15883;SDS011;8040;50.254;10.960;2023-11-22T09:03:25;487.20;;;118.13;;
15883;SDS011;8040;50.254;10.960;2023-11-22T09:05:50;470.73;;;114.50;;
15883;SDS011;8040;50.254;10.960;2023-11-22T09:08:17;469.70;;;114.05;;
15883;SDS011;8040;50.254;10.960;2023-11-22T09:10:44;507.17;;;122.57;;
15883;SDS011;8040;50.254;10.960;2023-11-22T09:13:09;477.05;;;115.05;;
15883;SDS011;8040;50.254;10.960;2023-11-22T09:15:36;419.83;;;101.32;;
15883;SDS011;8040;50.254;10.960;2023-11-22T09:18:03;429.17;;;102.57;;
15883;SDS011;8040;50.254;10.960;2023-11-22T09:20:29;432.65;;;103.97;;
15883;SDS011;8040;50.254;10.960;2023-11-22T09:22:55;451.63;;;109.70;;
15883;SDS011;8040;50.254;10.960;2023-11-22T09:25:24;444.70;;;107.17;;
15883;SDS011;8040;50.254;10.960;2023-11-22T09:27:56;480.65;;;115.50;;
15883;SDS011;8040;50.254;10.960;2023-11-22T09:30:28;450.75;;;109.97;;
15883;SDS011;8040;50.254;10.960;2023-11-22T09:35:28;445.98;;;107.25;;
15883;SDS011;8040;50.254;10.960;2023-11-22T09:38:04;454.23;;;108.30;;
15883;SDS011;8040;50.254;10.960;2023-11-22T09:40:40;412.95;;;98.90;;
15883;SDS011;8040;50.254;10.960;2023-11-22T09:43:10;424.17;;;100.93;;
15883;SDS011;8040;50.254;10.960;2023-11-22T09:45:37;424.73;;;100.20;;
15883;SDS011;8040;50.254;10.960;2023-11-22T09:50:57;434.83;;;101.53;;
15883;SDS011;8040;50.254;10.960;2023-11-22T09:56:05;569.77;;;132.33;;
15883;SDS011;8040;50.254;10.960;2023-11-22T09:58:35;468.85;;;108.20;;
15883;SDS011;8040;50.254;10.960;2023-11-22T10:01:03;454.52;;;106.95;;
15883;SDS011;8040;50.254;10.960;2023-11-22T10:03:29;466.95;;;109.82;;
15883;SDS011;8040;50.254;10.960;2023-11-22T10:05:58;459.27;;;110.20;;
15883;SDS011;8040;50.254;10.960;2023-11-22T10:08:27;454.70;;;106.90;;
15883;SDS011;8040;50.254;10.960;2023-11-22T10:10:54;439.02;;;103.95;;
15883;SDS011;8040;50.254;10.960;2023-11-22T10:13:21;459.50;;;112.93;;
15883;SDS011;8040;50.254;10.960;2023-11-22T10:15:47;430.40;;;101.55;;
15883;SDS011;8040;50.254;10.960;2023-11-22T10:18:13;423.48;;;99.40;;
15883;SDS011;8040;50.254;10.960;2023-11-22T10:20:42;432.80;;;103.55;;
15883;SDS011;8040;50.254;10.960;2023-11-22T10:23:11;429.98;;;109.88;;
15883;SDS011;8040;50.254;10.960;2023-11-22T10:25:44;441.48;;;105.72;;
15883;SDS011;8040;50.254;10.960;2023-11-22T10:28:11;450.08;;;108.65;;
15883;SDS011;8040;50.254;10.960;2023-11-22T10:30:37;441.15;;;105.13;;
15883;SDS011;8040;50.254;10.960;2023-11-22T10:33:03;450.77;;;109.95;;
15883;SDS011;8040;50.254;10.960;2023-11-22T10:35:29;476.85;;;115.45;;
15883;SDS011;8040;50.254;10.960;2023-11-22T10:37:54;435.77;;;104.78;;
15883;SDS011;8040;50.254;10.960;2023-11-22T10:40:20;423.97;;;105.30;;
15883;SDS011;8040;50.254;10.960;2023-11-22T10:42:45;428.47;;;104.07;;
15883;SDS011;8040;50.254;10.960;2023-11-22T10:45:17;443.13;;;107.57;;
15883;SDS011;8040;50.254;10.960;2023-11-22T10:47:43;454.67;;;109.83;;
15883;SDS011;8040;50.254;10.960;2023-11-22T10:50:08;458.10;;;112.07;;
15883;SDS011;8040;50.254;10.960;2023-11-22T10:52:36;452.58;;;109.93;;
15883;SDS011;8040;50.254;10.960;2023-11-22T10:55:03;416.67;;;102.43;;
15883;SDS011;8040;50.254;10.960;2023-11-22T10:57:31;443.80;;;107.70;;
15883;SDS011;8040;50.254;10.960;2023-11-22T10:59:59;475.60;;;119.20;;
15883;SDS011;8040;50.254;10.960;2023-11-22T11:02:34;480.23;;;116.28;;
15883;SDS011;8040;50.254;10.960;2023-11-22T11:05:03;423.13;;;102.17;;
15883;SDS011;8040;50.254;10.960;2023-11-22T11:07:41;411.42;;;99.28;;
15883;SDS011;8040;50.254;10.960;2023-11-22T11:10:14;422.52;;;104.47;;
15883;SDS011;8040;50.254;10.960;2023-11-22T11:12:41;454.67;;;112.68;;
15883;SDS011;8040;50.254;10.960;2023-11-22T11:15:06;455.58;;;112.47;;
15883;SDS011;8040;50.254;10.960;2023-11-22T11:17:33;467.65;;;115.35;;
15883;SDS011;8040;50.254;10.960;2023-11-22T11:20:00;436.27;;;105.90;;
15883;SDS011;8040;50.254;10.960;2023-11-22T11:22:25;480.43;;;115.73;;
15883;SDS011;8040;50.254;10.960;2023-11-22T11:24:59;472.73;;;116.10;;
15883;SDS011;8040;50.254;10.960;2023-11-22T11:27:28;473.50;;;115.50;;
15883;SDS011;8040;50.254;10.960;2023-11-22T11:29:54;462.23;;;112.15;;
15883;SDS011;8040;50.254;10.960;2023-11-22T11:32:38;463.13;;;111.60;;
15883;SDS011;8040;50.254;10.960;2023-11-22T11:35:04;441.17;;;107.57;;
15883;SDS011;8040;50.254;10.960;2023-11-22T11:37:33;449.05;;;110.10;;
15883;SDS011;8040;50.254;10.960;2023-11-22T11:39:58;435.05;;;106.45;;
15883;SDS011;8040;50.254;10.960;2023-11-22T11:42:24;446.17;;;110.97;;
15883;SDS011;8040;50.254;10.960;2023-11-22T11:47:24;462.80;;;114.32;;
15883;SDS011;8040;50.254;10.960;2023-11-22T11:49:49;455.93;;;113.13;;
15883;SDS011;8040;50.254;10.960;2023-11-22T11:52:15;461.52;;;115.72;;
15883;SDS011;8040;50.254;10.960;2023-11-22T11:54:41;448.40;;;110.40;;
15883;SDS011;8040;50.254;10.960;2023-11-22T11:57:07;465.23;;;115.20;;
15883;SDS011;8040;50.254;10.960;2023-11-22T11:59:33;461.90;;;113.43;;
15883;SDS011;8040;50.254;10.960;2023-11-22T12:02:00;467.80;;;115.83;;
15883;SDS011;8040;50.254;10.960;2023-11-22T12:04:26;453.23;;;111.88;;
15883;SDS011;8040;50.254;10.960;2023-11-22T12:06:51;430.70;;;107.05;;
15883;SDS011;8040;50.254;10.960;2023-11-22T12:09:27;445.23;;;109.10;;
15883;SDS011;8040;50.254;10.960;2023-11-22T12:11:55;429.13;;;106.95;;
15883;SDS011;8040;50.254;10.960;2023-11-22T12:14:21;476.10;;;117.37;;
15883;SDS011;8040;50.254;10.960;2023-11-22T12:16:50;431.95;;;107.43;;
15883;SDS011;8040;50.254;10.960;2023-11-22T12:19:25;445.25;;;108.70;;
15883;SDS011;8040;50.254;10.960;2023-11-22T12:21:53;462.13;;;112.43;;
15883;SDS011;8040;50.254;10.960;2023-11-22T12:24:19;445.58;;;111.50;;
15883;SDS011;8040;50.254;10.960;2023-11-22T12:26:45;435.52;;;109.07;;
15883;SDS011;8040;50.254;10.960;2023-11-22T12:29:13;452.30;;;113.38;;
15883;SDS011;8040;50.254;10.960;2023-11-22T12:31:50;476.23;;;119.18;;
15883;SDS011;8040;50.254;10.960;2023-11-22T12:34:18;474.42;;;118.80;;
15883;SDS011;8040;50.254;10.960;2023-11-22T12:36:45;477.05;;;119.72;;
15883;SDS011;8040;50.254;10.960;2023-11-22T12:39:12;424.92;;;109.50;;
15883;SDS011;8040;50.254;10.960;2023-11-22T12:41:42;449.25;;;113.30;;
15883;SDS011;8040;50.254;10.960;2023-11-22T12:44:10;473.70;;;120.35;;
15883;SDS011;8040;50.254;10.960;2023-11-22T12:46:45;461.77;;;116.28;;
15883;SDS011;8040;50.254;10.960;2023-11-22T12:49:14;447.65;;;113.40;;
15883;SDS011;8040;50.254;10.960;2023-11-22T12:51:45;434.98;;;110.57;;
15883;SDS011;8040;50.254;10.960;2023-11-22T12:54:31;434.55;;;109.97;;
15883;SDS011;8040;50.254;10.960;2023-11-22T12:56:58;426.13;;;108.70;;
15883;SDS011;8040;50.254;10.960;2023-11-22T12:59:24;453.08;;;113.47;;
15883;SDS011;8040;50.254;10.960;2023-11-22T13:01:53;442.42;;;111.90;;
15883;SDS011;8040;50.254;10.960;2023-11-22T13:04:19;478.10;;;120.20;;
15883;SDS011;8040;50.254;10.960;2023-11-22T13:06:45;452.57;;;114.13;;
15883;SDS011;8040;50.254;10.960;2023-11-22T13:09:10;420.13;;;107.63;;
15883;SDS011;8040;50.254;10.960;2023-11-22T13:11:42;423.83;;;109.72;;
15883;SDS011;8040;50.254;10.960;2023-11-22T13:14:08;443.05;;;138.23;;
15883;SDS011;8040;50.254;10.960;2023-11-22T13:16:34;438.13;;;111.53;;
15883;SDS011;8040;50.254;10.960;2023-11-22T13:19:02;427.47;;;114.10;;
15883;SDS011;8040;50.254;10.960;2023-11-22T13:21:27;460.70;;;116.30;;
15883;SDS011;8040;50.254;10.960;2023-11-22T13:23:56;444.27;;;111.60;;
15883;SDS011;8040;50.254;10.960;2023-11-22T13:26:22;435.35;;;111.55;;
15883;SDS011;8040;50.254;10.960;2023-11-22T13:28:47;472.98;;;120.05;;
15883;SDS011;8040;50.254;10.960;2023-11-22T13:31:13;470.47;;;120.20;;
15883;SDS011;8040;50.254;10.960;2023-11-22T13:33:39;458.98;;;117.82;;
15883;SDS011;8040;50.254;10.960;2023-11-22T13:36:09;460.65;;;118.78;;
15883;SDS011;8040;50.254;10.960;2023-11-22T13:38:36;463.02;;;117.32;;
15883;SDS011;8040;50.254;10.960;2023-11-22T13:41:02;447.40;;;113.18;;
15883;SDS011;8040;50.254;10.960;2023-11-22T13:43:27;464.10;;;115.90;;
15883;SDS011;8040;50.254;10.960;2023-11-22T13:45:56;446.67;;;111.03;;
15883;SDS011;8040;50.254;10.960;2023-11-22T13:48:21;474.95;;;118.88;;
15883;SDS011;8040;50.254;10.960;2023-11-22T13:50:48;450.80;;;113.50;;
15883;SDS011;8040;50.254;10.960;2023-11-22T13:53:14;440.70;;;111.40;;
15883;SDS011;8040;50.254;10.960;2023-11-22T13:55:41;441.70;;;111.20;;
15883;SDS011;8040;50.254;10.960;2023-11-22T13:58:07;452.40;;;110.57;;
15883;SDS011;8040;50.254;10.960;2023-11-22T14:00:34;462.92;;;117.43;;
15883;SDS011;8040;50.254;10.960;2023-11-22T14:03:00;458.95;;;115.85;;
15883;SDS011;8040;50.254;10.960;2023-11-22T14:05:31;487.58;;;121.57;;
15883;SDS011;8040;50.254;10.960;2023-11-22T14:07:58;437.63;;;108.85;;
15883;SDS011;8040;50.254;10.960;2023-11-22T14:10:24;435.77;;;109.70;;
15883;SDS011;8040;50.254;10.960;2023-11-22T14:12:49;431.27;;;109.30;;
15883;SDS011;8040;50.254;10.960;2023-11-22T14:15:15;434.25;;;109.47;;
15883;SDS011;8040;50.254;10.960;2023-11-22T14:17:41;450.63;;;111.85;;
15883;SDS011;8040;50.254;10.960;2023-11-22T14:20:07;444.50;;;111.38;;
15883;SDS011;8040;50.254;10.960;2023-11-22T14:22:34;489.27;;;145.30;;
15883;SDS011;8040;50.254;10.960;2023-11-22T14:25:04;465.50;;;116.32;;
15883;SDS011;8040;50.254;10.960;2023-11-22T14:27:36;493.25;;;122.38;;
15883;SDS011;8040;50.254;10.960;2023-11-22T14:30:09;454.27;;;112.95;;
15883;SDS011;8040;50.254;10.960;2023-11-22T14:32:36;471.45;;;116.63;;
15883;SDS011;8040;50.254;10.960;2023-11-22T14:35:02;450.93;;;111.93;;
15883;SDS011;8040;50.254;10.960;2023-11-22T14:37:28;462.77;;;113.32;;
15883;SDS011;8040;50.254;10.960;2023-11-22T14:39:55;445.83;;;109.13;;
15883;SDS011;8040;50.254;10.960;2023-11-22T14:42:21;435.38;;;106.22;;
15883;SDS011;8040;50.254;10.960;2023-11-22T14:44:47;455.42;;;111.32;;
15883;SDS011;8040;50.254;10.960;2023-11-22T14:47:13;425.30;;;107.00;;
15883;SDS011;8040;50.254;10.960;2023-11-22T14:49:41;464.50;;;114.20;;
15883;SDS011;8040;50.254;10.960;2023-11-22T14:52:07;439.63;;;107.47;;
15883;SDS011;8040;50.254;10.960;2023-11-22T14:54:43;447.65;;;114.18;;
15883;SDS011;8040;50.254;10.960;2023-11-22T14:57:10;460.23;;;113.10;;
15883;SDS011;8040;50.254;10.960;2023-11-22T14:59:37;461.27;;;113.68;;
15883;SDS011;8040;50.254;10.960;2023-11-22T15:02:03;454.02;;;113.45;;
15883;SDS011;8040;50.254;10.960;2023-11-22T15:04:34;469.85;;;116.72;;
15883;SDS011;8040;50.254;10.960;2023-11-22T15:07:02;459.77;;;113.13;;
15883;SDS011;8040;50.254;10.960;2023-11-22T15:09:28;482.27;;;118.82;;
15883;SDS011;8040;50.254;10.960;2023-11-22T15:11:53;426.00;;;108.40;;
15883;SDS011;8040;50.254;10.960;2023-11-22T15:14:20;517.88;;;126.70;;
15883;SDS011;8040;50.254;10.960;2023-11-22T15:16:47;446.83;;;110.97;;
15883;SDS011;8040;50.254;10.960;2023-11-22T15:19:13;443.63;;;114.83;;
15883;SDS011;8040;50.254;10.960;2023-11-22T15:21:38;448.30;;;109.77;;
15883;SDS011;8040;50.254;10.960;2023-11-22T15:24:04;465.23;;;114.00;;
15883;SDS011;8040;50.254;10.960;2023-11-22T15:26:30;430.30;;;105.20;;
15883;SDS011;8040;50.254;10.960;2023-11-22T15:28:55;496.95;;;125.22;;
15883;SDS011;8040;50.254;10.960;2023-11-22T15:31:21;527.00;;;178.07;;
15883;SDS011;8040;50.254;10.960;2023-11-22T15:33:48;472.42;;;174.88;;
15883;SDS011;8040;50.254;10.960;2023-11-22T15:36:13;467.77;;;123.40;;
15883;SDS011;8040;50.254;10.960;2023-11-22T15:38:39;451.33;;;113.47;;
15883;SDS011;8040;50.254;10.960;2023-11-22T15:41:05;456.33;;;109.90;;
15883;SDS011;8040;50.254;10.960;2023-11-22T15:43:33;439.95;;;108.18;;
15883;SDS011;8040;50.254;10.960;2023-11-22T15:45:59;466.80;;;118.75;;
15883;SDS011;8040;50.254;10.960;2023-11-22T15:48:24;454.67;;;132.23;;
15883;SDS011;8040;50.254;10.960;2023-11-22T15:50:53;453.00;;;112.53;;
15883;SDS011;8040;50.254;10.960;2023-11-22T15:53:19;449.10;;;108.93;;
15883;SDS011;8040;50.254;10.960;2023-11-22T15:55:44;442.73;;;109.18;;
15883;SDS011;8040;50.254;10.960;2023-11-22T15:58:10;460.65;;;111.78;;
15883;SDS011;8040;50.254;10.960;2023-11-22T16:00:35;475.50;;;117.00;;
15883;SDS011;8040;50.254;10.960;2023-11-22T16:03:01;466.42;;;114.55;;
15883;SDS011;8040;50.254;10.960;2023-11-22T16:05:30;452.03;;;110.33;;
15883;SDS011;8040;50.254;10.960;2023-11-22T16:07:56;435.90;;;107.03;;
15883;SDS011;8040;50.254;10.960;2023-11-22T16:10:21;453.60;;;112.73;;
15883;SDS011;8040;50.254;10.960;2023-11-22T16:12:47;469.20;;;114.47;;
15883;SDS011;8040;50.254;10.960;2023-11-22T16:15:12;463.73;;;115.07;;
15883;SDS011;8040;50.254;10.960;2023-11-22T16:17:38;461.10;;;113.17;;
15883;SDS011;8040;50.254;10.960;2023-11-22T16:20:06;423.53;;;108.37;;
15883;SDS011;8040;50.254;10.960;2023-11-22T16:22:40;434.13;;;107.95;;
15883;SDS011;8040;50.254;10.960;2023-11-22T16:25:09;452.15;;;132.65;;
15883;SDS011;8040;50.254;10.960;2023-11-22T16:27:36;488.80;;;179.85;;
15883;SDS011;8040;50.254;10.960;2023-11-22T16:30:02;470.35;;;120.20;;
15883;SDS011;8040;50.254;10.960;2023-11-22T16:32:29;459.70;;;124.07;;
15883;SDS011;8040;50.254;10.960;2023-11-22T16:34:56;473.77;;;128.80;;
15883;SDS011;8040;50.254;10.960;2023-11-22T16:37:23;483.75;;;146.02;;
15883;SDS011;8040;50.254;10.960;2023-11-22T16:39:56;416.60;;;105.87;;
15883;SDS011;8040;50.254;10.960;2023-11-22T16:42:22;418.63;;;106.68;;
15883;SDS011;8040;50.254;10.960;2023-11-22T16:44:48;447.45;;;131.60;;
15883;SDS011;8040;50.254;10.960;2023-11-22T16:47:13;406.42;;;105.38;;
15883;SDS011;8040;50.254;10.960;2023-11-22T16:49:45;537.60;;;136.75;;
15883;SDS011;8040;50.254;10.960;2023-11-22T16:52:12;418.58;;;107.25;;
15883;SDS011;8040;50.254;10.960;2023-11-22T16:54:39;436.55;;;111.15;;
15883;SDS011;8040;50.254;10.960;2023-11-22T16:57:05;445.73;;;112.90;;
15883;SDS011;8040;50.254;10.960;2023-11-22T16:59:31;455.15;;;115.38;;
15883;SDS011;8040;50.254;10.960;2023-11-22T17:01:56;463.37;;;117.67;;
15883;SDS011;8040;50.254;10.960;2023-11-22T17:04:24;454.57;;;116.63;;
15883;SDS011;8040;50.254;10.960;2023-11-22T17:06:52;442.80;;;113.35;;
15883;SDS011;8040;50.254;10.960;2023-11-22T17:09:17;469.90;;;122.93;;
15883;SDS011;8040;50.254;10.960;2023-11-22T17:11:43;463.10;;;118.97;;
15883;SDS011;8040;50.254;10.960;2023-11-22T17:14:09;457.98;;;115.97;;
15883;SDS011;8040;50.254;10.960;2023-11-22T17:16:35;473.90;;;122.13;;
15883;SDS011;8040;50.254;10.960;2023-11-22T17:19:00;478.42;;;120.97;;
15883;SDS011;8040;50.254;10.960;2023-11-22T17:21:25;491.00;;;124.88;;
15883;SDS011;8040;50.254;10.960;2023-11-22T17:23:51;468.83;;;119.03;;
15883;SDS011;8040;50.254;10.960;2023-11-22T17:26:16;478.10;;;120.60;;
15883;SDS011;8040;50.254;10.960;2023-11-22T17:28:42;474.37;;;119.90;;
15883;SDS011;8040;50.254;10.960;2023-11-22T17:31:07;470.63;;;120.30;;
15883;SDS011;8040;50.254;10.960;2023-11-22T17:33:33;484.30;;;122.10;;
15883;SDS011;8040;50.254;10.960;2023-11-22T17:35:58;465.60;;;114.23;;
15883;SDS011;8040;50.254;10.960;2023-11-22T17:38:24;472.87;;;117.53;;
15883;SDS011;8040;50.254;10.960;2023-11-22T17:40:51;481.00;;;124.97;;
15883;SDS011;8040;50.254;10.960;2023-11-22T17:43:19;455.95;;;118.47;;
15883;SDS011;8040;50.254;10.960;2023-11-22T17:45:44;458.10;;;113.30;;
15883;SDS011;8040;50.254;10.960;2023-11-22T17:48:10;477.80;;;121.47;;
15883;SDS011;8040;50.254;10.960;2023-11-22T17:50:35;454.58;;;115.82;;
15883;SDS011;8040;50.254;10.960;2023-11-22T17:53:01;460.88;;;114.32;;
15883;SDS011;8040;50.254;10.960;2023-11-22T17:55:26;455.23;;;114.35;;
15883;SDS011;8040;50.254;10.960;2023-11-22T17:57:52;484.13;;;121.88;;
15883;SDS011;8040;50.254;10.960;2023-11-22T18:00:18;484.40;;;123.10;;
15883;SDS011;8040;50.254;10.960;2023-11-22T18:02:43;463.35;;;116.20;;
15883;SDS011;8040;50.254;10.960;2023-11-22T18:05:09;441.77;;;111.47;;
15883;SDS011;8040;50.254;10.960;2023-11-22T18:07:34;457.08;;;113.55;;
15883;SDS011;8040;50.254;10.960;2023-11-22T18:10:02;460.95;;;117.43;;
15883;SDS011;8040;50.254;10.960;2023-11-22T18:12:30;455.38;;;131.07;;
15883;SDS011;8040;50.254;10.960;2023-11-22T18:14:56;470.65;;;135.27;;
15883;SDS011;8040;50.254;10.960;2023-11-22T18:17:21;452.42;;;129.73;;
15883;SDS011;8040;50.254;10.960;2023-11-22T18:19:48;446.17;;;127.32;;
15883;SDS011;8040;50.254;10.960;2023-11-22T18:22:14;464.63;;;133.07;;
15883;SDS011;8040;50.254;10.960;2023-11-22T18:24:40;476.57;;;135.30;;
15883;SDS011;8040;50.254;10.960;2023-11-22T18:27:05;454.60;;;132.23;;
15883;SDS011;8040;50.254;10.960;2023-11-22T18:29:31;472.47;;;134.27;;
15883;SDS011;8040;50.254;10.960;2023-11-22T18:31:56;456.63;;;131.97;;
15883;SDS011;8040;50.254;10.960;2023-11-22T18:34:23;451.17;;;125.28;;
15883;SDS011;8040;50.254;10.960;2023-11-22T18:36:55;455.67;;;133.27;;
15883;SDS011;8040;50.254;10.960;2023-11-22T18:39:21;455.67;;;132.30;;
15883;SDS011;8040;50.254;10.960;2023-11-22T18:41:47;469.57;;;145.63;;
15883;SDS011;8040;50.254;10.960;2023-11-22T18:44:18;453.98;;;127.05;;
15883;SDS011;8040;50.254;10.960;2023-11-22T18:46:45;432.73;;;122.57;;
15883;SDS011;8040;50.254;10.960;2023-11-22T18:49:11;420.23;;;107.10;;
15883;SDS011;8040;50.254;10.960;2023-11-22T18:51:37;429.52;;;117.00;;
15883;SDS011;8040;50.254;10.960;2023-11-22T18:54:03;446.17;;;132.18;;
15883;SDS011;8040;50.254;10.960;2023-11-22T18:56:28;444.95;;;130.55;;
15883;SDS011;8040;50.254;10.960;2023-11-22T18:58:54;413.83;;;104.23;;
15883;SDS011;8040;50.254;10.960;2023-11-22T19:01:20;431.27;;;109.53;;
15883;SDS011;8040;50.254;10.960;2023-11-22T19:03:46;482.63;;;136.50;;
15883;SDS011;8040;50.254;10.960;2023-11-22T19:06:12;440.13;;;125.65;;
15883;SDS011;8040;50.254;10.960;2023-11-22T19:08:38;446.67;;;130.37;;
15883;SDS011;8040;50.254;10.960;2023-11-22T19:11:06;449.55;;;133.23;;
15883;SDS011;8040;50.254;10.960;2023-11-22T19:13:36;452.80;;;124.53;;
15883;SDS011;8040;50.254;10.960;2023-11-22T19:16:02;445.45;;;132.15;;
15883;SDS011;8040;50.254;10.960;2023-11-22T19:18:27;461.80;;;130.02;;